createdAt,value
2024-04-16T00:00:17.695Z,26.27
2024-04-16T00:01:17.759Z,26.27
2024-04-16T00:02:17.724Z,26.30
2024-04-16T00:03:17.809Z,26.29
2024-04-16T00:04:17.832Z,26.27
2024-04-16T00:05:17.841Z,26.29
2024-04-16T00:06:17.772Z,26.30
2024-04-16T00:07:17.824Z,26.29
2024-04-16T00:08:17.790Z,26.29
2024-04-16T00:09:17.865Z,26.29
2024-04-16T00:10:17.902Z,26.27
2024-04-16T00:11:17.858Z,26.27
2024-04-16T00:12:17.858Z,26.29
2024-04-16T00:13:17.898Z,26.27
2024-04-16T00:14:17.902Z,26.29
2024-04-16T00:15:17.884Z,26.26
2024-04-16T00:16:17.932Z,26.29
2024-04-16T00:17:17.944Z,26.26
2024-04-16T00:18:17.930Z,26.26
2024-04-16T00:19:17.956Z,26.27
2024-04-16T00:20:17.945Z,26.29
2024-04-16T00:21:17.966Z,26.26
2024-04-16T00:22:17.955Z,26.26
2024-04-16T00:23:17.940Z,26.26
2024-04-16T00:24:17.974Z,26.27
2024-04-16T00:25:18.040Z,26.26
2024-04-16T00:26:17.991Z,26.26
2024-04-16T00:27:18.002Z,26.26
2024-04-16T00:28:18.075Z,26.23
2024-04-16T00:29:18.033Z,26.27
2024-04-16T00:30:18.047Z,26.24
2024-04-16T00:31:18.092Z,26.27
2024-04-16T00:32:18.746Z,26.26
2024-04-16T00:33:18.206Z,26.24
2024-04-16T00:34:18.156Z,26.24
2024-04-16T00:35:18.131Z,26.24
2024-04-16T00:36:18.160Z,26.24
2024-04-16T00:37:18.199Z,26.24
2024-04-16T00:38:18.174Z,26.23
2024-04-16T00:39:18.263Z,26.23
2024-04-16T00:40:18.257Z,26.24
2024-04-16T00:41:18.195Z,26.23
2024-04-16T00:42:18.210Z,26.23
2024-04-16T00:43:18.251Z,26.24
2024-04-16T00:44:18.244Z,26.22
2024-04-16T00:45:18.239Z,26.24
2024-04-16T00:46:18.262Z,26.23
2024-04-16T00:47:18.343Z,26.23
2024-04-16T00:48:18.295Z,26.23
2024-04-16T00:49:18.331Z,26.24
2024-04-16T00:50:18.296Z,26.23
2024-04-16T00:51:18.291Z,26.22
2024-04-16T00:52:18.402Z,26.22
2024-04-16T00:53:18.347Z,26.23
2024-04-16T00:54:18.347Z,26.26
2024-04-16T00:55:18.395Z,26.22
2024-04-16T00:56:18.356Z,26.24
2024-04-16T00:57:18.445Z,26.23
2024-04-16T00:58:18.421Z,26.24
2024-04-16T00:59:18.424Z,26.24
2024-04-16T01:00:18.406Z,26.20
2024-04-16T01:01:18.481Z,26.22
2024-04-16T01:02:18.459Z,26.23
2024-04-16T01:03:18.512Z,26.23
2024-04-16T01:04:18.536Z,26.23
2024-04-16T01:05:18.488Z,26.23
2024-04-16T01:06:18.550Z,26.22
2024-04-16T01:07:18.546Z,26.22
2024-04-16T01:08:18.512Z,26.22
2024-04-16T01:09:18.553Z,26.24
2024-04-16T01:10:18.556Z,26.22
2024-04-16T01:11:18.544Z,26.22
2024-04-16T01:12:18.557Z,26.22
2024-04-16T01:13:18.584Z,26.19
2024-04-16T01:14:18.584Z,26.20
2024-04-16T01:15:18.598Z,26.20
2024-04-16T01:16:18.645Z,26.22
2024-04-16T01:17:18.670Z,26.19
2024-04-16T01:18:18.814Z,26.20
2024-04-16T01:19:18.713Z,26.20
2024-04-16T01:20:18.690Z,26.20
2024-04-16T01:21:18.680Z,26.19
2024-04-16T01:22:18.709Z,26.19
2024-04-16T01:23:18.713Z,26.20
2024-04-16T01:24:18.739Z,26.19
2024-04-16T01:25:18.816Z,26.20
2024-04-16T01:26:18.762Z,26.17
2024-04-16T01:27:18.788Z,26.19
2024-04-16T01:28:18.827Z,26.19
2024-04-16T01:29:18.825Z,26.19
2024-04-16T01:30:18.849Z,26.20
2024-04-16T01:31:18.867Z,26.20
2024-04-16T01:32:18.928Z,26.19
2024-04-16T01:33:18.861Z,26.19
2024-04-16T01:34:18.924Z,26.19
2024-04-16T01:35:18.905Z,26.19
2024-04-16T01:36:18.921Z,26.17
2024-04-16T01:37:18.944Z,26.16
2024-04-16T01:38:18.935Z,26.16
2024-04-16T01:39:18.979Z,26.17
2024-04-16T01:40:18.996Z,26.16
2024-04-16T01:41:18.957Z,26.13
2024-04-16T01:42:18.975Z,26.15
2024-04-16T01:43:19.002Z,26.13
2024-04-16T01:44:19.018Z,26.12
2024-04-16T01:45:19.035Z,26.12
2024-04-16T01:46:19.029Z,26.09
2024-04-16T01:47:19.115Z,26.10
2024-04-16T01:48:19.155Z,26.09
2024-04-16T01:49:19.147Z,26.10
2024-04-16T01:50:19.075Z,26.06
2024-04-16T01:51:19.081Z,26.06
2024-04-16T01:52:19.112Z,26.04
2024-04-16T01:53:19.122Z,26.04
2024-04-16T01:54:19.121Z,26.04
2024-04-16T01:55:19.166Z,26.03
2024-04-16T01:56:19.173Z,26.03
2024-04-16T01:57:19.184Z,26.03
2024-04-16T01:58:19.268Z,26.02
2024-04-16T01:59:19.217Z,26.03
2024-04-16T02:00:19.281Z,26.00
2024-04-16T02:01:19.295Z,26.02
2024-04-16T02:02:19.301Z,25.97
2024-04-16T02:03:19.325Z,25.97
2024-04-16T02:04:19.426Z,25.96
2024-04-16T02:05:19.366Z,25.97
2024-04-16T02:06:19.381Z,25.96
2024-04-16T02:07:19.412Z,25.95
2024-04-16T02:08:19.396Z,25.95
2024-04-16T02:09:19.423Z,25.95
2024-04-16T02:10:19.489Z,25.95
2024-04-16T02:11:19.445Z,25.95
2024-04-16T02:12:19.474Z,25.95
2024-04-16T02:13:19.529Z,25.93
2024-04-16T02:14:19.567Z,25.92
2024-04-16T02:15:19.562Z,25.93
2024-04-16T02:16:19.655Z,25.93
2024-04-16T02:17:19.648Z,25.92
2024-04-16T02:18:19.778Z,25.92
2024-04-16T02:19:19.691Z,25.93
2024-04-16T02:20:19.636Z,25.93
2024-04-16T02:21:19.673Z,25.92
2024-04-16T02:22:19.716Z,25.90
2024-04-16T02:23:19.702Z,25.92
2024-04-16T02:24:19.731Z,25.92
2024-04-16T02:25:19.788Z,25.90
2024-04-16T02:26:19.747Z,25.90
2024-04-16T02:27:19.793Z,25.89
2024-04-16T02:28:19.810Z,25.92
2024-04-16T02:29:19.835Z,25.89
2024-04-16T02:30:19.856Z,25.90
2024-04-16T02:31:19.942Z,25.89
2024-04-16T02:32:20.017Z,25.90
2024-04-16T02:33:19.911Z,25.90
2024-04-16T02:34:20.003Z,25.89
2024-04-16T02:35:19.971Z,25.89
2024-04-16T02:36:20.004Z,25.86
2024-04-16T02:37:20.046Z,25.88
2024-04-16T02:38:20.069Z,25.86
2024-04-16T02:39:20.073Z,25.89
2024-04-16T02:40:20.152Z,25.88
2024-04-16T02:41:20.142Z,25.86
2024-04-16T02:42:20.152Z,25.85
2024-04-16T02:43:20.222Z,25.88
2024-04-16T02:44:20.219Z,25.85
2024-04-16T02:45:20.219Z,25.85
2024-04-16T02:46:20.276Z,25.82
2024-04-16T02:47:20.276Z,25.83
2024-04-16T02:48:20.332Z,25.83
2024-04-16T02:49:20.416Z,25.83
2024-04-16T02:50:20.359Z,25.82
2024-04-16T02:51:20.355Z,25.83
2024-04-16T02:52:20.434Z,25.83
2024-04-16T02:53:20.419Z,25.80
2024-04-16T02:54:20.441Z,25.79
2024-04-16T02:55:20.526Z,25.83
2024-04-16T02:56:20.509Z,25.82
2024-04-16T02:57:20.522Z,25.82
2024-04-16T02:58:20.637Z,25.82
2024-04-16T02:59:20.583Z,25.83
2024-04-16T03:00:20.598Z,25.82
2024-04-16T03:01:20.675Z,25.80
2024-04-16T03:02:20.657Z,25.78
2024-04-16T03:03:20.675Z,25.82
2024-04-16T03:04:20.807Z,25.79
2024-04-16T03:05:20.743Z,25.80
2024-04-16T03:06:20.778Z,25.80
2024-04-16T03:07:20.809Z,25.82
2024-04-16T03:08:20.836Z,25.79
2024-04-16T03:09:20.818Z,25.78
2024-04-16T03:10:20.870Z,25.79
2024-04-16T03:11:20.905Z,25.82
2024-04-16T03:12:20.879Z,25.83
2024-04-16T03:13:20.980Z,25.80
2024-04-16T03:14:20.944Z,25.80
2024-04-16T03:15:21.016Z,25.80
2024-04-16T03:16:21.030Z,25.82
2024-04-16T03:17:21.133Z,25.80
2024-04-16T03:18:21.092Z,25.79
2024-04-16T03:19:21.079Z,25.78
2024-04-16T03:20:21.072Z,25.79
2024-04-16T03:21:24.202Z,25.80
2024-04-16T03:22:21.143Z,25.80
2024-04-16T03:23:21.101Z,25.80
2024-04-16T03:24:21.098Z,25.83
2024-04-16T03:25:21.230Z,25.80
2024-04-16T03:26:21.101Z,25.82
2024-04-16T03:27:21.118Z,25.82
2024-04-16T03:28:21.135Z,25.82
2024-04-16T03:29:21.163Z,25.79
2024-04-16T03:30:21.124Z,25.80
2024-04-16T03:31:21.128Z,25.82
2024-04-16T03:32:21.187Z,25.82
2024-04-16T03:33:21.152Z,25.79
2024-04-16T03:34:21.190Z,25.79
2024-04-16T03:35:21.123Z,25.80
2024-04-16T03:36:21.120Z,25.78
2024-04-16T03:37:21.204Z,25.79
2024-04-16T03:38:21.127Z,25.79
2024-04-16T03:39:21.137Z,25.78
2024-04-16T03:40:21.146Z,25.79
2024-04-16T03:41:21.121Z,25.78
2024-04-16T03:42:21.133Z,25.79
2024-04-16T03:43:21.144Z,25.76
2024-04-16T03:44:21.145Z,25.76
2024-04-16T03:45:21.157Z,25.78
2024-04-16T03:46:21.127Z,25.76
2024-04-16T03:47:21.154Z,25.79
2024-04-16T03:48:21.182Z,25.78
2024-04-16T03:49:21.160Z,25.79
2024-04-16T03:50:21.146Z,25.76
2024-04-16T03:51:21.121Z,25.79
2024-04-16T03:52:21.198Z,25.75
2024-04-16T03:53:21.156Z,25.75
2024-04-16T03:54:21.161Z,25.75
2024-04-16T03:55:21.190Z,25.73
2024-04-16T03:56:21.140Z,25.75
2024-04-16T03:57:21.128Z,25.75
2024-04-16T03:58:21.187Z,25.76
2024-04-16T03:59:21.141Z,25.76
2024-04-16T04:00:21.180Z,25.75
2024-04-16T04:01:21.259Z,25.70
2024-04-16T04:02:21.327Z,25.73
2024-04-16T04:03:21.263Z,25.72
2024-04-16T04:04:21.452Z,25.73
2024-04-16T04:05:21.312Z,25.76
2024-04-16T04:06:21.365Z,25.73
2024-04-16T04:07:21.417Z,25.73
2024-04-16T04:08:21.399Z,25.73
2024-04-16T04:09:21.435Z,25.73
2024-04-16T04:10:21.488Z,25.72
2024-04-16T04:11:21.536Z,25.73
2024-04-16T04:12:21.510Z,25.70
2024-04-16T04:13:21.559Z,25.70
2024-04-16T04:14:21.583Z,25.70
2024-04-16T04:15:21.615Z,25.70
2024-04-16T04:16:21.616Z,25.70
2024-04-16T04:17:21.689Z,25.70
2024-04-16T04:18:28.873Z,25.68
2024-04-16T04:19:28.844Z,25.69
2024-04-16T04:20:28.822Z,25.70
2024-04-16T04:21:28.822Z,25.69
2024-04-16T04:22:28.847Z,25.68
2024-04-16T04:23:28.811Z,25.69
2024-04-16T04:24:34.570Z,25.69
2024-04-16T04:25:29.879Z,25.69
2024-04-16T04:26:28.834Z,25.69
2024-04-16T04:27:28.824Z,25.68
2024-04-16T04:28:28.819Z,25.66
2024-04-16T04:29:28.835Z,25.69
2024-04-16T04:30:28.837Z,25.69
2024-04-16T04:31:36.148Z,25.64
2024-04-16T04:32:39.276Z,25.65
2024-04-16T04:33:36.009Z,25.68
2024-04-16T04:34:36.013Z,25.68
2024-04-16T04:35:36.052Z,25.68
2024-04-16T04:36:35.997Z,25.65
2024-04-16T04:37:36.027Z,25.66
2024-04-16T04:38:35.993Z,25.68
2024-04-16T04:39:36.020Z,25.68
2024-04-16T04:40:36.096Z,25.68
2024-04-16T04:41:35.987Z,25.68
2024-04-16T04:42:35.990Z,25.66
2024-04-16T04:43:36.124Z,25.68
2024-04-16T04:44:36.006Z,25.69
2024-04-16T04:45:36.035Z,25.69
2024-04-16T04:46:36.168Z,25.69
2024-04-16T04:47:36.083Z,25.68
2024-04-16T04:48:36.074Z,25.68
2024-04-16T04:49:36.070Z,25.68
2024-04-16T04:50:35.998Z,25.68
2024-04-16T04:51:36.019Z,25.66
2024-04-16T04:52:36.116Z,25.68
2024-04-16T04:53:35.998Z,25.66
2024-04-16T04:54:36.020Z,25.65
2024-04-16T04:55:36.091Z,25.69
2024-04-16T04:56:36.010Z,25.70
2024-04-16T04:57:36.006Z,25.69
2024-04-16T04:58:36.136Z,25.68
2024-04-16T04:59:36.010Z,25.68
2024-04-16T05:00:36.041Z,25.68
2024-04-16T05:01:36.106Z,25.68
2024-04-16T05:02:36.027Z,25.66
2024-04-16T05:03:36.066Z,25.68
2024-04-16T05:04:36.059Z,25.69
2024-04-16T05:05:36.027Z,25.68
2024-04-16T05:06:36.017Z,25.69
2024-04-16T05:07:36.082Z,25.69
2024-04-16T05:08:36.026Z,25.68
2024-04-16T05:09:36.026Z,25.68
2024-04-16T05:10:36.045Z,25.70
2024-04-16T05:11:36.050Z,25.69
2024-04-16T05:12:36.021Z,25.70
2024-04-16T05:13:36.087Z,25.68
2024-04-16T05:14:36.028Z,25.68
2024-04-16T05:15:36.041Z,25.70
2024-04-16T05:16:36.103Z,25.68
2024-04-16T05:17:36.133Z,25.70
2024-04-16T05:18:36.255Z,25.69
2024-04-16T05:19:36.112Z,25.68
2024-04-16T05:20:36.069Z,25.72
2024-04-16T05:21:36.037Z,25.69
2024-04-16T05:22:36.096Z,25.68
2024-04-16T05:23:36.055Z,25.70
2024-04-16T05:24:36.050Z,25.70
2024-04-16T05:25:36.132Z,25.68
2024-04-16T05:26:36.062Z,25.68
2024-04-16T05:27:36.083Z,25.69
2024-04-16T05:28:36.222Z,25.68
2024-04-16T05:29:36.141Z,25.66
2024-04-16T05:30:36.223Z,25.68
2024-04-16T05:31:36.206Z,25.69
2024-04-16T05:32:36.358Z,25.68
2024-04-16T05:33:36.255Z,25.59
2024-04-16T05:34:36.414Z,25.68
2024-04-16T05:35:36.447Z,25.65
2024-04-16T05:36:36.359Z,25.66
2024-04-16T05:37:36.509Z,25.69
2024-04-16T05:38:36.474Z,25.68
2024-04-16T05:39:36.477Z,25.72
2024-04-16T05:40:36.568Z,25.72
2024-04-16T05:41:36.526Z,25.75
2024-04-16T05:42:36.626Z,25.78
2024-04-16T05:43:36.619Z,25.83
2024-04-16T05:44:36.617Z,25.83
2024-04-16T05:45:37.138Z,25.92
2024-04-16T05:46:38.455Z,25.96
2024-04-16T05:47:36.807Z,25.97
2024-04-16T05:48:36.694Z,26.03
2024-04-16T05:49:37.671Z,26.03
2024-04-16T05:50:37.150Z,26.03
2024-04-16T05:51:36.671Z,26.03
2024-04-16T05:52:36.802Z,26.00
2024-04-16T05:53:36.696Z,25.99
2024-04-16T05:54:36.775Z,25.95
2024-04-16T05:55:36.824Z,25.92
2024-04-16T05:56:36.685Z,25.89
2024-04-16T05:57:36.676Z,25.88
2024-04-16T05:58:36.838Z,25.82
2024-04-16T05:59:36.753Z,25.82
2024-04-16T06:00:37.198Z,25.80
2024-04-16T06:01:36.722Z,25.78
2024-04-16T06:02:36.849Z,25.76
2024-04-16T06:03:36.747Z,25.72
2024-04-16T06:04:36.733Z,25.72
2024-04-16T06:05:36.701Z,25.72
2024-04-16T06:06:36.746Z,25.66
2024-04-16T06:07:36.772Z,25.62
2024-04-16T06:08:36.714Z,25.64
2024-04-16T06:09:36.689Z,25.62
2024-04-16T06:10:36.925Z,25.62
2024-04-16T06:11:36.724Z,25.56
2024-04-16T06:12:36.735Z,25.55
2024-04-16T06:13:40.125Z,25.56
2024-04-16T06:14:36.693Z,25.55
2024-04-16T06:15:36.767Z,25.53
2024-04-16T06:16:36.831Z,25.53
2024-04-16T06:17:36.707Z,25.52
2024-04-16T06:18:36.715Z,25.52
2024-04-16T06:19:36.799Z,25.50
2024-04-16T06:20:37.146Z,25.49
2024-04-16T06:21:36.715Z,25.48
2024-04-16T06:22:36.773Z,25.48
2024-04-16T06:23:36.743Z,25.46
2024-04-16T06:24:36.710Z,25.46
2024-04-16T06:25:36.755Z,25.46
2024-04-16T06:26:36.706Z,25.46
2024-04-16T06:27:36.739Z,25.46
2024-04-16T06:28:36.812Z,25.46
2024-04-16T06:29:36.764Z,25.42
2024-04-16T06:30:36.743Z,25.42
2024-04-16T06:31:36.812Z,25.41
2024-04-16T06:32:37.046Z,25.39
2024-04-16T06:33:36.993Z,25.41
2024-04-16T06:34:37.101Z,25.41
2024-04-16T06:35:37.071Z,25.41
2024-04-16T06:36:37.767Z,25.36
2024-04-16T06:37:37.363Z,25.41
2024-04-16T06:38:37.309Z,25.49
2024-04-16T06:39:37.447Z,25.49
2024-04-16T06:40:37.731Z,25.59
2024-04-16T06:41:37.418Z,25.69
2024-04-16T06:42:37.458Z,25.69
2024-04-16T06:43:37.626Z,25.72
2024-04-16T06:44:37.552Z,25.79
2024-04-16T06:45:37.637Z,25.83
2024-04-16T06:46:37.718Z,25.88
2024-04-16T06:47:37.645Z,25.95
2024-04-16T06:48:37.720Z,25.99
2024-04-16T06:49:37.827Z,26.03
2024-04-16T06:50:37.735Z,26.07
2024-04-16T06:51:37.680Z,26.13
2024-04-16T06:52:37.728Z,26.19
2024-04-16T06:53:37.680Z,26.16
2024-04-16T06:54:37.768Z,26.24
2024-04-16T06:55:37.797Z,26.30
2024-04-16T06:56:37.774Z,26.33
2024-04-16T06:57:37.815Z,26.36
2024-04-16T06:58:37.904Z,26.40
2024-04-16T06:59:37.768Z,26.42
2024-04-16T07:00:37.861Z,26.43
2024-04-16T07:01:37.847Z,26.46
2024-04-16T07:02:37.863Z,26.50
2024-04-16T07:03:37.810Z,26.51
2024-04-16T07:04:37.921Z,26.53
2024-04-16T07:05:37.817Z,26.54
2024-04-16T07:06:37.844Z,26.57
2024-04-16T07:07:37.910Z,26.63
2024-04-16T07:08:37.919Z,26.58
2024-04-16T07:09:37.907Z,26.64
2024-04-16T07:10:38.340Z,26.66
2024-04-16T07:11:37.955Z,26.61
2024-04-16T07:12:37.972Z,26.60
2024-04-16T07:13:38.126Z,26.67
2024-04-16T07:14:38.103Z,26.68
2024-04-16T07:15:38.200Z,26.68
2024-04-16T07:16:38.252Z,26.64
2024-04-16T07:17:38.456Z,26.70
2024-04-16T07:18:38.409Z,26.73
2024-04-16T07:19:38.526Z,26.76
2024-04-16T07:20:40.188Z,26.80
2024-04-16T07:21:38.571Z,26.81
2024-04-16T07:22:38.744Z,26.80
2024-04-16T07:23:38.729Z,26.84
2024-04-16T07:24:38.762Z,26.88
2024-04-16T07:25:38.873Z,26.91
2024-04-16T07:26:38.945Z,26.94
2024-04-16T07:27:38.953Z,26.90
2024-04-16T07:28:39.094Z,26.94
2024-04-16T07:29:39.165Z,26.91
2024-04-16T07:30:39.153Z,26.94
2024-04-16T07:31:45.105Z,26.95
2024-04-16T07:32:40.525Z,26.88
2024-04-16T07:33:39.336Z,26.84
2024-04-16T07:34:39.274Z,26.93
2024-04-16T07:35:39.233Z,26.97
2024-04-16T07:36:39.232Z,26.98
2024-04-16T07:37:39.333Z,26.95
2024-04-16T07:38:39.231Z,26.98
2024-04-16T07:39:39.321Z,26.97
2024-04-16T07:40:39.757Z,26.91
2024-04-16T07:41:39.365Z,26.90
2024-04-16T07:42:39.462Z,26.88
2024-04-16T07:43:39.555Z,26.86
2024-04-16T07:44:40.194Z,26.81
2024-04-16T07:45:39.611Z,26.78
2024-04-16T07:46:39.682Z,26.74
2024-04-16T07:47:39.933Z,26.73
2024-04-16T07:48:39.708Z,26.71
2024-04-16T07:49:39.797Z,26.67
2024-04-16T07:50:39.713Z,26.64
2024-04-16T07:51:39.699Z,26.61
2024-04-16T07:52:39.766Z,26.57
2024-04-16T07:53:39.790Z,26.60
2024-04-16T07:54:39.715Z,26.54
2024-04-16T07:55:39.825Z,26.56
2024-04-16T07:56:40.728Z,26.53
2024-04-16T07:57:39.747Z,26.50
2024-04-16T07:58:39.858Z,26.51
2024-04-16T07:59:39.747Z,26.50
2024-04-16T08:00:40.235Z,26.48
2024-04-16T08:01:39.823Z,26.47
2024-04-16T08:02:39.788Z,26.48
2024-04-16T08:03:39.771Z,26.44
2024-04-16T08:04:39.933Z,26.44
2024-04-16T08:05:39.745Z,26.43
2024-04-16T08:06:39.757Z,26.42
2024-04-16T08:07:39.879Z,26.40
2024-04-16T08:08:39.770Z,26.43
2024-04-16T08:09:39.740Z,26.44
2024-04-16T08:10:39.938Z,26.44
2024-04-16T08:11:39.814Z,26.43
2024-04-16T08:12:39.764Z,26.46
2024-04-16T08:13:39.874Z,26.47
2024-04-16T08:14:41.084Z,26.47
2024-04-16T08:15:39.754Z,26.47
2024-04-16T08:16:39.911Z,26.47
2024-04-16T08:17:39.921Z,26.47
2024-04-16T08:18:39.777Z,26.46
2024-04-16T08:19:39.816Z,26.47
2024-04-16T08:20:39.860Z,26.47
2024-04-16T08:21:39.786Z,26.48
2024-04-16T08:22:39.828Z,26.46
2024-04-16T08:23:39.805Z,26.43
2024-04-16T08:24:39.825Z,26.44
2024-04-16T08:25:40.050Z,26.47
2024-04-16T08:26:39.844Z,26.50
2024-04-16T08:27:39.912Z,26.50
2024-04-16T08:28:39.950Z,26.50
2024-04-16T08:29:39.867Z,26.48
2024-04-16T08:30:39.887Z,26.47
2024-04-16T08:31:39.961Z,26.47
2024-04-16T08:32:39.943Z,26.46
2024-04-16T08:33:39.982Z,26.46
2024-04-16T08:34:39.996Z,26.46
2024-04-16T08:35:39.935Z,26.43
2024-04-16T08:36:39.953Z,26.43
2024-04-16T08:37:40.035Z,26.42
2024-04-16T08:38:40.764Z,26.44
2024-04-16T08:39:40.012Z,26.40
2024-04-16T08:40:40.348Z,26.40
2024-04-16T08:41:39.978Z,26.39
2024-04-16T08:42:39.995Z,26.40
2024-04-16T08:43:40.241Z,26.42
2024-04-16T08:44:40.053Z,26.39
2024-04-16T08:45:40.200Z,26.42
2024-04-16T08:46:40.173Z,26.42
2024-04-16T08:47:40.155Z,26.43
2024-04-16T08:48:40.073Z,26.46
2024-04-16T08:49:42.821Z,26.44
2024-04-16T08:50:40.198Z,26.47
2024-04-16T08:51:40.073Z,26.46
2024-04-16T08:52:40.196Z,26.48
2024-04-16T08:53:40.095Z,26.47
2024-04-16T08:54:40.115Z,26.47
2024-04-16T08:55:40.173Z,26.47
2024-04-16T08:56:40.115Z,26.47
2024-04-16T08:57:40.081Z,26.48
2024-04-16T08:58:40.201Z,26.44
2024-04-16T08:59:40.116Z,26.46
2024-04-16T09:00:40.247Z,26.44
2024-04-16T09:01:40.151Z,26.43
2024-04-16T09:02:40.133Z,26.44
2024-04-16T09:03:40.097Z,26.46
2024-04-16T09:04:40.309Z,26.43
2024-04-16T09:05:40.150Z,26.47
2024-04-16T09:06:40.086Z,26.50
2024-04-16T09:07:40.120Z,26.47
2024-04-16T09:08:40.232Z,26.48
2024-04-16T09:09:40.109Z,26.51
2024-04-16T09:10:40.291Z,26.51
2024-04-16T09:11:41.136Z,26.53
2024-04-16T09:12:40.092Z,26.53
2024-04-16T09:13:40.199Z,26.54
2024-04-16T09:14:40.137Z,26.60
2024-04-16T09:15:40.110Z,26.60
2024-04-16T09:16:40.238Z,26.61
2024-04-16T09:17:40.148Z,26.63
2024-04-16T09:18:40.233Z,26.63
2024-04-16T09:19:40.217Z,26.66
2024-04-16T09:20:40.149Z,26.67
2024-04-16T09:21:40.117Z,26.67
2024-04-16T09:22:40.210Z,26.68
2024-04-16T09:23:40.216Z,26.70
2024-04-16T09:24:40.137Z,26.70
2024-04-16T09:25:40.351Z,26.71
2024-04-16T09:26:40.135Z,26.68
2024-04-16T09:27:40.123Z,26.73
2024-04-16T09:28:40.170Z,26.73
2024-04-16T09:29:40.132Z,26.74
2024-04-16T09:30:40.139Z,26.74
2024-04-16T09:31:40.215Z,26.71
2024-04-16T09:32:40.190Z,26.73
2024-04-16T09:33:40.212Z,26.70
2024-04-16T09:34:40.171Z,26.66
2024-04-16T09:35:40.204Z,26.70
2024-04-16T09:36:40.195Z,26.74
2024-04-16T09:37:42.459Z,26.77
2024-04-16T09:38:40.202Z,26.78
2024-04-16T09:39:40.160Z,26.81
2024-04-16T09:40:40.317Z,26.83
2024-04-16T09:41:40.281Z,26.83
2024-04-16T09:42:40.259Z,26.84
2024-04-16T09:43:40.229Z,26.87
2024-04-16T09:44:40.171Z,26.87
2024-04-16T09:45:40.260Z,26.88
2024-04-16T09:46:40.324Z,26.88
2024-04-16T09:47:40.276Z,26.86
2024-04-16T09:48:40.189Z,26.88
2024-04-16T09:49:50.432Z,26.88
2024-04-16T09:50:49.991Z,26.90
2024-04-16T09:51:41.190Z,26.91
2024-04-16T09:52:40.275Z,26.86
2024-04-16T09:53:40.168Z,26.80
2024-04-16T09:54:40.214Z,26.81
2024-04-16T09:55:40.269Z,26.84
2024-04-16T09:56:40.193Z,26.84
2024-04-16T09:57:40.182Z,26.87
2024-04-16T09:58:40.223Z,26.91
2024-04-16T09:59:40.224Z,26.90
2024-04-16T10:00:40.273Z,26.91
2024-04-16T10:01:40.228Z,26.90
2024-04-16T10:02:40.243Z,26.86
2024-04-16T10:03:40.212Z,26.90
2024-04-16T10:04:40.236Z,26.86
2024-04-16T10:05:40.263Z,26.90
2024-04-16T10:06:40.261Z,26.88
2024-04-16T10:07:40.307Z,26.88
2024-04-16T10:08:40.241Z,26.91
2024-04-16T10:09:40.231Z,26.78
2024-04-16T10:10:40.304Z,26.86
2024-04-16T10:11:40.309Z,26.87
2024-04-16T10:12:40.209Z,26.90
2024-04-16T10:13:40.337Z,26.91
2024-04-16T10:14:40.216Z,26.91
2024-04-16T10:15:40.212Z,26.91
2024-04-16T10:16:40.282Z,26.90
2024-04-16T10:17:40.283Z,26.93
2024-04-16T10:18:40.212Z,26.91
2024-04-16T10:19:40.840Z,26.90
2024-04-16T10:20:40.395Z,26.91
2024-04-16T10:21:40.425Z,26.91
2024-04-16T10:22:48.275Z,26.93
2024-04-16T10:23:41.524Z,26.93
2024-04-16T10:24:40.476Z,26.94
2024-04-16T10:25:40.517Z,26.97
2024-04-16T10:26:40.467Z,26.97
2024-04-16T10:27:40.480Z,26.97
2024-04-16T10:28:40.518Z,26.95
2024-04-16T10:29:40.475Z,26.94
2024-04-16T10:30:40.496Z,27.00
2024-04-16T10:31:40.559Z,26.88
2024-04-16T10:32:40.611Z,26.97
2024-04-16T10:33:40.778Z,27.01
2024-04-16T10:34:40.740Z,26.91
2024-04-16T10:35:40.708Z,26.87
2024-04-16T10:36:40.799Z,26.90
2024-04-16T10:37:40.929Z,26.91
2024-04-16T10:38:40.896Z,26.90
2024-04-16T10:39:40.963Z,26.90
2024-04-16T10:40:41.110Z,26.87
2024-04-16T10:41:41.093Z,26.90
2024-04-16T10:42:41.143Z,26.91
2024-04-16T10:43:41.312Z,26.95
2024-04-16T10:44:41.288Z,26.93
2024-04-16T10:45:41.428Z,26.95
2024-04-16T10:46:41.600Z,26.95
2024-04-16T10:47:42.300Z,26.94
2024-04-16T10:48:41.565Z,27.01
2024-04-16T10:49:44.423Z,26.98
2024-04-16T10:50:41.627Z,26.98
2024-04-16T10:51:41.762Z,26.97
2024-04-16T10:52:41.770Z,26.97
2024-04-16T10:53:41.685Z,26.98
2024-04-16T10:54:41.620Z,26.95
2024-04-16T10:55:41.653Z,26.97
2024-04-16T10:56:41.631Z,27.02
2024-04-16T10:57:41.625Z,27.02
2024-04-16T10:58:41.669Z,27.02
2024-04-16T10:59:48.838Z,27.02
2024-04-16T11:00:42.854Z,27.02
2024-04-16T11:01:41.816Z,27.02
2024-04-16T11:02:41.870Z,27.02
2024-04-16T11:03:41.831Z,27.00
2024-04-16T11:04:41.782Z,26.98
2024-04-16T11:05:41.778Z,26.95
2024-04-16T11:06:41.706Z,26.93
2024-04-16T11:07:41.710Z,26.88
2024-04-16T11:08:41.659Z,26.86
2024-04-16T11:09:42.337Z,26.88
2024-04-16T11:10:41.880Z,26.94
2024-04-16T11:11:41.940Z,26.93
2024-04-16T11:12:41.919Z,26.94
2024-04-16T11:13:42.028Z,26.95
2024-04-16T11:14:42.121Z,27.00
2024-04-16T11:15:42.166Z,26.98
2024-04-16T11:16:42.439Z,27.00
2024-04-16T11:17:42.375Z,27.04
2024-04-16T11:18:42.333Z,27.05
2024-04-16T11:19:42.504Z,27.08
2024-04-16T11:20:42.462Z,27.08
2024-04-16T11:21:42.519Z,27.10
2024-04-16T11:22:42.684Z,27.08
2024-04-16T11:23:42.615Z,27.10
2024-04-16T11:24:42.675Z,27.07
2024-04-16T11:25:42.859Z,27.07
2024-04-16T11:26:42.813Z,27.07
2024-04-16T11:27:42.891Z,27.07
2024-04-16T11:28:42.983Z,27.02
2024-04-16T11:29:42.981Z,27.02
2024-04-16T11:30:43.090Z,27.02
2024-04-16T11:31:43.312Z,27.04
2024-04-16T11:32:43.295Z,27.00
2024-04-16T11:33:43.315Z,27.01
2024-04-16T11:34:43.418Z,27.00
2024-04-16T11:35:43.361Z,27.01
2024-04-16T11:36:43.408Z,27.01
2024-04-16T11:37:43.540Z,26.98
2024-04-16T11:38:43.754Z,26.97
2024-04-16T11:39:43.616Z,27.00
2024-04-16T11:40:48.147Z,26.98
2024-04-16T11:41:44.682Z,27.00
2024-04-16T11:42:43.680Z,26.95
2024-04-16T11:43:44.380Z,27.00
2024-04-16T11:44:43.711Z,26.97
2024-04-16T11:45:43.730Z,26.95
2024-04-16T11:46:43.818Z,26.95
2024-04-16T11:47:43.816Z,26.94
2024-04-16T11:48:43.827Z,26.93
2024-04-16T11:49:43.737Z,26.91
2024-04-16T11:50:43.773Z,26.93
2024-04-16T11:51:43.902Z,26.91
2024-04-16T11:52:44.073Z,26.94
2024-04-16T11:53:43.974Z,26.90
2024-04-16T11:54:44.035Z,26.90
2024-04-16T11:55:44.134Z,26.88
2024-04-16T11:56:44.202Z,26.87
2024-04-16T11:57:44.266Z,26.87
2024-04-16T11:58:44.799Z,26.88
2024-04-16T11:59:44.441Z,26.86
2024-04-16T12:00:44.541Z,26.87
2024-04-16T12:01:44.622Z,26.86
2024-04-16T12:02:44.630Z,26.78
2024-04-16T12:03:44.763Z,26.86
2024-04-16T12:04:44.828Z,26.83
2024-04-16T12:05:44.834Z,26.83
2024-04-16T12:06:44.886Z,26.81
2024-04-16T12:07:44.946Z,26.83
2024-04-16T12:08:44.982Z,26.80
2024-04-16T12:09:45.040Z,26.83
2024-04-16T12:10:45.159Z,26.80
2024-04-16T12:11:45.260Z,26.80
2024-04-16T12:12:45.186Z,26.80
2024-04-16T12:13:45.363Z,26.81
2024-04-16T12:14:45.312Z,26.83
2024-04-16T12:15:45.386Z,26.83
2024-04-16T12:16:45.614Z,26.81
2024-04-16T12:17:45.551Z,26.80
2024-04-16T12:18:45.611Z,26.81
2024-04-16T12:19:45.742Z,26.81
2024-04-16T12:20:45.685Z,26.81
2024-04-16T12:21:45.819Z,26.80
2024-04-16T12:22:45.893Z,26.80
2024-04-16T12:23:45.891Z,26.80
2024-04-16T12:24:46.035Z,26.81
2024-04-16T12:25:48.331Z,26.80
2024-04-16T12:26:46.027Z,26.80
2024-04-16T12:27:46.105Z,26.80
2024-04-16T12:28:46.103Z,26.78
2024-04-16T12:29:46.012Z,26.80
2024-04-16T12:30:46.041Z,26.78
2024-04-16T12:31:46.222Z,26.80
2024-04-16T12:32:54.865Z,26.80
2024-04-16T12:33:47.177Z,26.78
2024-04-16T12:34:46.061Z,26.81
2024-04-16T12:35:46.034Z,26.77
2024-04-16T12:36:46.096Z,26.77
2024-04-16T12:37:46.121Z,26.78
2024-04-16T12:38:46.030Z,26.77
2024-04-16T12:39:46.097Z,26.76
2024-04-16T12:40:46.145Z,26.77
2024-04-16T12:41:46.058Z,26.77
2024-04-16T12:42:46.104Z,26.77
2024-04-16T12:43:46.279Z,26.76
2024-04-16T12:44:46.228Z,26.76
2024-04-16T12:45:46.288Z,26.74
2024-04-16T12:46:46.398Z,26.76
2024-04-16T12:47:46.491Z,26.73
2024-04-16T12:48:46.553Z,26.76
2024-04-16T12:49:46.565Z,26.77
2024-04-16T12:50:46.639Z,26.77
2024-04-16T12:51:46.681Z,26.73
2024-04-16T12:52:46.886Z,26.77